sensor_id;sensor_type;location;lat;lon;timestamp;P1;durP1;ratioP1;P2;durP2;ratioP2
78968;SDS011;68369;51.050;17.018;2023-11-21T00:00:01;2.60;;;1.20;;
78968;SDS011;68369;51.050;17.018;2023-11-21T00:18:45;2.50;;;0.70;;
78968;SDS011;68369;51.050;17.018;2023-11-21T00:24:25;3.60;;;1.40;;
78968;SDS011;68369;51.050;17.018;2023-11-21T00:27:11;5.00;;;0.80;;
78968;SDS011;68369;51.050;17.018;2023-11-21T00:29:58;2.30;;;0.70;;
78968;SDS011;68369;51.050;17.018;2023-11-21T00:42:03;2.50;;;1.10;;
78968;SDS011;68369;51.050;17.018;2023-11-21T00:47:44;6.00;;;1.60;;
78968;SDS011;68369;51.050;17.018;2023-11-21T00:50:30;4.90;;;1.30;;
78968;SDS011;68369;51.050;17.018;2023-11-21T00:53:17;5.10;;;1.50;;
78968;SDS011;68369;51.050;17.018;2023-11-21T00:59:23;1.50;;;0.90;;
78968;SDS011;68369;51.050;17.018;2023-11-21T01:02:11;3.80;;;1.20;;
78968;SDS011;68369;51.050;17.018;2023-11-21T01:05:01;4.90;;;1.80;;
78968;SDS011;68369;51.050;17.018;2023-11-21T01:07:49;2.90;;;1.10;;
78968;SDS011;68369;51.050;17.018;2023-11-21T01:13:52;4.60;;;1.40;;
78968;SDS011;68369;51.050;17.018;2023-11-21T01:16:39;3.90;;;1.10;;
78968;SDS011;68369;51.050;17.018;2023-11-21T01:26:01;3.40;;;1.40;;
78968;SDS011;68369;51.050;17.018;2023-11-21T01:31:33;4.00;;;1.40;;
78968;SDS011;68369;51.050;17.018;2023-11-21T01:54:17;2.30;;;1.30;;
78968;SDS011;68369;51.050;17.018;2023-11-21T01:57:07;3.20;;;1.20;;
78968;SDS011;68369;51.050;17.018;2023-11-21T01:59:54;3.60;;;1.20;;
78968;SDS011;68369;51.050;17.018;2023-11-21T02:02:46;3.40;;;1.60;;
78968;SDS011;68369;51.050;17.018;2023-11-21T02:05:34;5.20;;;1.40;;
78968;SDS011;68369;51.050;17.018;2023-11-21T02:08:20;5.20;;;1.70;;
78968;SDS011;68369;51.050;17.018;2023-11-21T02:11:06;4.40;;;1.50;;
78968;SDS011;68369;51.050;17.018;2023-11-21T02:23:18;3.50;;;1.30;;
78968;SDS011;68369;51.050;17.018;2023-11-21T02:26:17;2.60;;;1.30;;
78968;SDS011;68369;51.050;17.018;2023-11-21T02:29:03;4.10;;;2.00;;
78968;SDS011;68369;51.050;17.018;2023-11-21T02:41:16;2.50;;;1.30;;
78968;SDS011;68369;51.050;17.018;2023-11-21T02:44:03;8.30;;;2.00;;
78968;SDS011;68369;51.050;17.018;2023-11-21T02:46:49;3.00;;;1.50;;
78968;SDS011;68369;51.050;17.018;2023-11-21T02:56:07;6.70;;;2.00;;
78968;SDS011;68369;51.050;17.018;2023-11-21T03:01:34;5.00;;;2.00;;
78968;SDS011;68369;51.050;17.018;2023-11-21T03:04:21;4.00;;;1.70;;
78968;SDS011;68369;51.050;17.018;2023-11-21T03:07:08;2.60;;;1.70;;
78968;SDS011;68369;51.050;17.018;2023-11-21T03:09:55;4.40;;;1.70;;
78968;SDS011;68369;51.050;17.018;2023-11-21T03:12:41;3.10;;;1.40;;
78968;SDS011;68369;51.050;17.018;2023-11-21T03:15:28;3.10;;;1.60;;
78968;SDS011;68369;51.050;17.018;2023-11-21T03:18:14;4.70;;;1.80;;
78968;SDS011;68369;51.050;17.018;2023-11-21T03:21:00;5.70;;;1.50;;
78968;SDS011;68369;51.050;17.018;2023-11-21T03:23:46;5.00;;;1.60;;
78968;SDS011;68369;51.050;17.018;2023-11-21T03:26:33;5.70;;;2.50;;
78968;SDS011;68369;51.050;17.018;2023-11-21T03:29:19;3.40;;;1.80;;
78968;SDS011;68369;51.050;17.018;2023-11-21T03:32:05;4.00;;;1.80;;
78968;SDS011;68369;51.050;17.018;2023-11-21T03:34:54;3.40;;;1.90;;
78968;SDS011;68369;51.050;17.018;2023-11-21T03:37:42;4.60;;;1.90;;
78968;SDS011;68369;51.050;17.018;2023-11-21T03:40:29;3.30;;;1.80;;
78968;SDS011;68369;51.050;17.018;2023-11-21T03:43:17;4.80;;;2.00;;
78968;SDS011;68369;51.050;17.018;2023-11-21T03:46:04;3.00;;;1.60;;
78968;SDS011;68369;51.050;17.018;2023-11-21T03:48:50;4.70;;;1.70;;
78968;SDS011;68369;51.050;17.018;2023-11-21T03:51:36;5.70;;;2.10;;
78968;SDS011;68369;51.050;17.018;2023-11-21T03:54:22;6.80;;;2.20;;
78968;SDS011;68369;51.050;17.018;2023-11-21T03:57:08;3.30;;;1.90;;
78968;SDS011;68369;51.050;17.018;2023-11-21T03:59:55;5.20;;;1.60;;
78968;SDS011;68369;51.050;17.018;2023-11-21T04:02:41;4.90;;;1.70;;
78968;SDS011;68369;51.050;17.018;2023-11-21T04:05:28;6.20;;;2.10;;
78968;SDS011;68369;51.050;17.018;2023-11-21T04:08:14;3.70;;;1.50;;
78968;SDS011;68369;51.050;17.018;2023-11-21T04:11:02;4.50;;;1.50;;
78968;SDS011;68369;51.050;17.018;2023-11-21T04:13:49;3.80;;;1.60;;
78968;SDS011;68369;51.050;17.018;2023-11-21T04:16:36;5.30;;;1.60;;
78968;SDS011;68369;51.050;17.018;2023-11-21T04:19:22;2.90;;;1.30;;
78968;SDS011;68369;51.050;17.018;2023-11-21T04:22:08;3.30;;;1.50;;
78968;SDS011;68369;51.050;17.018;2023-11-21T04:24:55;7.60;;;2.30;;
78968;SDS011;68369;51.050;17.018;2023-11-21T04:27:42;4.00;;;1.70;;
78968;SDS011;68369;51.050;17.018;2023-11-21T04:33:45;4.40;;;1.50;;
78968;SDS011;68369;51.050;17.018;2023-11-21T04:36:32;5.00;;;1.90;;
78968;SDS011;68369;51.050;17.018;2023-11-21T04:39:20;6.20;;;1.90;;
78968;SDS011;68369;51.050;17.018;2023-11-21T04:48:24;5.10;;;1.70;;
78968;SDS011;68369;51.050;17.018;2023-11-21T04:51:11;3.70;;;1.70;;
78968;SDS011;68369;51.050;17.018;2023-11-21T04:53:59;2.20;;;1.20;;
78968;SDS011;68369;51.050;17.018;2023-11-21T04:56:45;3.90;;;1.50;;
78968;SDS011;68369;51.050;17.018;2023-11-21T04:59:31;4.50;;;2.10;;
78968;SDS011;68369;51.050;17.018;2023-11-21T05:02:17;3.50;;;1.60;;
78968;SDS011;68369;51.050;17.018;2023-11-21T05:05:20;3.30;;;1.60;;
78968;SDS011;68369;51.050;17.018;2023-11-21T05:08:07;4.80;;;2.20;;
78968;SDS011;68369;51.050;17.018;2023-11-21T05:10:54;6.60;;;1.50;;
78968;SDS011;68369;51.050;17.018;2023-11-21T05:13:41;4.00;;;2.00;;
78968;SDS011;68369;51.050;17.018;2023-11-21T05:29:42;5.30;;;2.40;;
78968;SDS011;68369;51.050;17.018;2023-11-21T05:35:44;7.10;;;2.40;;
78968;SDS011;68369;51.050;17.018;2023-11-21T05:38:30;6.80;;;2.40;;
78968;SDS011;68369;51.050;17.018;2023-11-21T05:41:16;4.10;;;1.60;;
78968;SDS011;68369;51.050;17.018;2023-11-21T05:44:03;7.70;;;2.40;;
78968;SDS011;68369;51.050;17.018;2023-11-21T05:46:50;3.70;;;2.30;;
78968;SDS011;68369;51.050;17.018;2023-11-21T05:49:36;4.60;;;2.40;;
78968;SDS011;68369;51.050;17.018;2023-11-21T05:52:23;7.30;;;2.40;;
78968;SDS011;68369;51.050;17.018;2023-11-21T05:55:09;6.00;;;2.50;;
78968;SDS011;68369;51.050;17.018;2023-11-21T05:57:55;4.40;;;2.00;;
78968;SDS011;68369;51.050;17.018;2023-11-21T06:00:41;4.90;;;2.00;;
78968;SDS011;68369;51.050;17.018;2023-11-21T06:03:46;4.80;;;1.70;;
78968;SDS011;68369;51.050;17.018;2023-11-21T06:06:35;4.30;;;1.90;;
78968;SDS011;68369;51.050;17.018;2023-11-21T06:09:21;4.80;;;2.30;;
78968;SDS011;68369;51.050;17.018;2023-11-21T06:12:08;3.10;;;1.90;;
78968;SDS011;68369;51.050;17.018;2023-11-21T06:14:55;4.10;;;2.00;;
78968;SDS011;68369;51.050;17.018;2023-11-21T06:17:42;5.30;;;2.50;;
78968;SDS011;68369;51.050;17.018;2023-11-21T06:20:30;4.90;;;2.30;;
78968;SDS011;68369;51.050;17.018;2023-11-21T06:23:17;3.10;;;2.10;;
78968;SDS011;68369;51.050;17.018;2023-11-21T06:26:03;4.90;;;2.00;;
78968;SDS011;68369;51.050;17.018;2023-11-21T06:28:51;6.30;;;2.60;;
78968;SDS011;68369;51.050;17.018;2023-11-21T06:31:37;3.70;;;1.80;;
78968;SDS011;68369;51.050;17.018;2023-11-21T06:34:24;3.70;;;1.70;;
78968;SDS011;68369;51.050;17.018;2023-11-21T06:37:10;3.30;;;1.90;;
78968;SDS011;68369;51.050;17.018;2023-11-21T06:43:06;3.30;;;2.30;;
78968;SDS011;68369;51.050;17.018;2023-11-21T06:45:55;4.10;;;1.90;;
78968;SDS011;68369;51.050;17.018;2023-11-21T06:51:41;5.60;;;2.00;;
78968;SDS011;68369;51.050;17.018;2023-11-21T07:13:56;5.60;;;2.40;;
78968;SDS011;68369;51.050;17.018;2023-11-21T07:16:43;5.50;;;2.60;;
78968;SDS011;68369;51.050;17.018;2023-11-21T07:19:29;5.70;;;2.70;;
78968;SDS011;68369;51.050;17.018;2023-11-21T07:22:16;3.70;;;2.20;;
78968;SDS011;68369;51.050;17.018;2023-11-21T07:28:23;6.50;;;2.30;;
78968;SDS011;68369;51.050;17.018;2023-11-21T07:37:27;7.40;;;2.20;;
78968;SDS011;68369;51.050;17.018;2023-11-21T07:40:15;5.70;;;2.70;;
78968;SDS011;68369;51.050;17.018;2023-11-21T07:43:03;6.50;;;2.50;;
78968;SDS011;68369;51.050;17.018;2023-11-21T07:45:49;7.90;;;2.80;;
78968;SDS011;68369;51.050;17.018;2023-11-21T07:48:35;5.60;;;2.40;;
78968;SDS011;68369;51.050;17.018;2023-11-21T07:51:22;5.30;;;2.30;;
78968;SDS011;68369;51.050;17.018;2023-11-21T08:09:50;7.60;;;2.40;;
78968;SDS011;68369;51.050;17.018;2023-11-21T08:12:36;4.50;;;2.30;;
78968;SDS011;68369;51.050;17.018;2023-11-21T08:15:22;6.00;;;2.80;;
78968;SDS011;68369;51.050;17.018;2023-11-21T08:18:09;4.40;;;2.10;;
78968;SDS011;68369;51.050;17.018;2023-11-21T08:20:56;6.50;;;2.70;;
78968;SDS011;68369;51.050;17.018;2023-11-21T08:26:45;5.70;;;2.50;;
78968;SDS011;68369;51.050;17.018;2023-11-21T08:39:16;4.90;;;2.30;;
78968;SDS011;68369;51.050;17.018;2023-11-21T08:58:15;7.60;;;3.10;;
78968;SDS011;68369;51.050;17.018;2023-11-21T09:20:58;4.90;;;2.40;;
78968;SDS011;68369;51.050;17.018;2023-11-21T09:23:46;3.40;;;2.20;;
78968;SDS011;68369;51.050;17.018;2023-11-21T09:26:34;7.90;;;2.80;;
78968;SDS011;68369;51.050;17.018;2023-11-21T09:29:21;5.70;;;2.60;;
78968;SDS011;68369;51.050;17.018;2023-11-21T09:38:38;6.00;;;2.40;;
78968;SDS011;68369;51.050;17.018;2023-11-21T09:41:32;4.90;;;2.20;;
78968;SDS011;68369;51.050;17.018;2023-11-21T10:00:40;7.10;;;3.00;;
78968;SDS011;68369;51.050;17.018;2023-11-21T10:33:06;7.80;;;3.90;;
78968;SDS011;68369;51.050;17.018;2023-11-21T10:39:20;5.30;;;2.90;;
78968;SDS011;68369;51.050;17.018;2023-11-21T10:48:25;6.00;;;3.30;;
78968;SDS011;68369;51.050;17.018;2023-11-21T11:42:13;16.60;;;9.90;;
78968;SDS011;68369;51.050;17.018;2023-11-21T11:48:21;16.70;;;9.80;;
78968;SDS011;68369;51.050;17.018;2023-11-21T11:57:47;19.90;;;10.70;;
78968;SDS011;68369;51.050;17.018;2023-11-21T12:10:15;19.40;;;10.10;;
78968;SDS011;68369;51.050;17.018;2023-11-21T12:19:07;17.50;;;10.00;;
78968;SDS011;68369;51.050;17.018;2023-11-21T12:35:20;14.20;;;6.80;;
78968;SDS011;68369;51.050;17.018;2023-11-21T12:38:24;17.30;;;9.00;;
78968;SDS011;68369;51.050;17.018;2023-11-21T12:41:11;14.70;;;7.60;;
78968;SDS011;68369;51.050;17.018;2023-11-21T12:47:15;14.90;;;8.40;;
78968;SDS011;68369;51.050;17.018;2023-11-21T12:53:23;12.00;;;6.70;;
78968;SDS011;68369;51.050;17.018;2023-11-21T12:56:10;9.40;;;6.00;;
78968;SDS011;68369;51.050;17.018;2023-11-21T13:02:19;11.60;;;6.60;;
78968;SDS011;68369;51.050;17.018;2023-11-21T13:05:07;14.50;;;7.40;;
78968;SDS011;68369;51.050;17.018;2023-11-21T13:08:02;11.50;;;6.30;;
78968;SDS011;68369;51.050;17.018;2023-11-21T13:10:53;8.70;;;5.10;;
78968;SDS011;68369;51.050;17.018;2023-11-21T13:13:43;7.90;;;4.50;;
78968;SDS011;68369;51.050;17.018;2023-11-21T13:16:30;7.10;;;5.00;;
78968;SDS011;68369;51.050;17.018;2023-11-21T13:19:17;9.30;;;6.30;;
78968;SDS011;68369;51.050;17.018;2023-11-21T13:22:05;9.40;;;5.20;;
78968;SDS011;68369;51.050;17.018;2023-11-21T13:28:07;7.80;;;4.70;;
78968;SDS011;68369;51.050;17.018;2023-11-21T13:30:58;6.10;;;4.00;;
78968;SDS011;68369;51.050;17.018;2023-11-21T13:33:50;6.60;;;3.70;;
78968;SDS011;68369;51.050;17.018;2023-11-21T13:36:45;7.10;;;4.50;;
78968;SDS011;68369;51.050;17.018;2023-11-21T13:39:31;6.30;;;4.00;;
78968;SDS011;68369;51.050;17.018;2023-11-21T13:42:23;8.40;;;4.50;;
78968;SDS011;68369;51.050;17.018;2023-11-21T13:45:15;6.70;;;3.80;;
78968;SDS011;68369;51.050;17.018;2023-11-21T13:48:05;5.90;;;4.00;;
78968;SDS011;68369;51.050;17.018;2023-11-21T13:50:56;6.10;;;2.90;;
78968;SDS011;68369;51.050;17.018;2023-11-21T13:56:59;6.50;;;4.00;;
78968;SDS011;68369;51.050;17.018;2023-11-21T13:59:47;6.10;;;3.70;;
78968;SDS011;68369;51.050;17.018;2023-11-21T14:02:33;6.50;;;4.00;;
78968;SDS011;68369;51.050;17.018;2023-11-21T14:09:43;7.40;;;4.30;;
78968;SDS011;68369;51.050;17.018;2023-11-21T14:18:44;17.40;;;7.50;;
78968;SDS011;68369;51.050;17.018;2023-11-21T14:28:13;8.70;;;6.10;;
78968;SDS011;68369;51.050;17.018;2023-11-21T14:31:23;7.20;;;4.20;;
78968;SDS011;68369;51.050;17.018;2023-11-21T14:50:27;7.60;;;4.70;;
78968;SDS011;68369;51.050;17.018;2023-11-21T15:03:21;5.00;;;3.20;;
78968;SDS011;68369;51.050;17.018;2023-11-21T15:06:33;5.70;;;3.20;;
78968;SDS011;68369;51.050;17.018;2023-11-21T15:09:20;6.00;;;3.60;;
78968;SDS011;68369;51.050;17.018;2023-11-21T15:12:06;7.60;;;4.10;;
78968;SDS011;68369;51.050;17.018;2023-11-21T15:15:01;7.00;;;4.70;;
78968;SDS011;68369;51.050;17.018;2023-11-21T15:31:07;5.10;;;3.10;;
78968;SDS011;68369;51.050;17.018;2023-11-21T15:33:54;7.30;;;5.00;;
78968;SDS011;68369;51.050;17.018;2023-11-21T15:40:05;6.40;;;4.10;;
78968;SDS011;68369;51.050;17.018;2023-11-21T15:42:54;8.80;;;5.20;;
78968;SDS011;68369;51.050;17.018;2023-11-21T15:45:41;5.70;;;4.70;;
78968;SDS011;68369;51.050;17.018;2023-11-21T15:48:27;8.00;;;5.10;;
78968;SDS011;68369;51.050;17.018;2023-11-21T16:04:03;8.50;;;5.70;;
78968;SDS011;68369;51.050;17.018;2023-11-21T16:26:45;9.00;;;6.00;;
78968;SDS011;68369;51.050;17.018;2023-11-21T16:29:31;10.10;;;6.20;;
78968;SDS011;68369;51.050;17.018;2023-11-21T16:38:12;9.00;;;6.20;;
78968;SDS011;68369;51.050;17.018;2023-11-21T16:40:59;7.60;;;4.70;;
78968;SDS011;68369;51.050;17.018;2023-11-21T16:43:46;5.80;;;3.90;;
78968;SDS011;68369;51.050;17.018;2023-11-21T16:46:32;7.60;;;4.70;;
78968;SDS011;68369;51.050;17.018;2023-11-21T16:52:45;9.40;;;6.70;;
78968;SDS011;68369;51.050;17.018;2023-11-21T16:55:31;10.40;;;7.50;;
78968;SDS011;68369;51.050;17.018;2023-11-21T16:58:37;10.40;;;6.40;;
78968;SDS011;68369;51.050;17.018;2023-11-21T17:11:11;7.50;;;4.70;;
78968;SDS011;68369;51.050;17.018;2023-11-21T17:14:00;7.50;;;4.80;;
78968;SDS011;68369;51.050;17.018;2023-11-21T17:16:46;9.10;;;6.00;;
78968;SDS011;68369;51.050;17.018;2023-11-21T17:19:36;8.80;;;5.70;;
78968;SDS011;68369;51.050;17.018;2023-11-21T17:22:23;7.60;;;5.40;;
78968;SDS011;68369;51.050;17.018;2023-11-21T17:25:09;8.80;;;5.80;;
78968;SDS011;68369;51.050;17.018;2023-11-21T17:27:56;7.10;;;4.70;;
78968;SDS011;68369;51.050;17.018;2023-11-21T17:33:36;9.50;;;6.00;;
78968;SDS011;68369;51.050;17.018;2023-11-21T17:36:23;9.10;;;6.00;;
78968;SDS011;68369;51.050;17.018;2023-11-21T17:48:35;10.10;;;6.30;;
78968;SDS011;68369;51.050;17.018;2023-11-21T17:51:24;8.80;;;5.00;;
78968;SDS011;68369;51.050;17.018;2023-11-21T17:54:11;10.10;;;5.40;;
78968;SDS011;68369;51.050;17.018;2023-11-21T17:56:58;9.00;;;5.60;;
78968;SDS011;68369;51.050;17.018;2023-11-21T17:59:44;12.10;;;6.70;;
78968;SDS011;68369;51.050;17.018;2023-11-21T18:02:33;12.80;;;7.70;;
78968;SDS011;68369;51.050;17.018;2023-11-21T18:05:22;10.80;;;7.20;;
78968;SDS011;68369;51.050;17.018;2023-11-21T18:08:09;12.50;;;7.40;;
78968;SDS011;68369;51.050;17.018;2023-11-21T18:10:56;10.10;;;6.40;;
78968;SDS011;68369;51.050;17.018;2023-11-21T18:19:54;11.20;;;6.50;;
78968;SDS011;68369;51.050;17.018;2023-11-21T18:22:42;12.20;;;6.40;;
78968;SDS011;68369;51.050;17.018;2023-11-21T18:25:28;12.00;;;6.30;;
78968;SDS011;68369;51.050;17.018;2023-11-21T18:28:15;17.20;;;10.00;;
78968;SDS011;68369;51.050;17.018;2023-11-21T18:31:04;16.40;;;10.10;;
78968;SDS011;68369;51.050;17.018;2023-11-21T18:33:53;19.60;;;11.00;;
78968;SDS011;68369;51.050;17.018;2023-11-21T18:39:45;18.40;;;10.90;;
78968;SDS011;68369;51.050;17.018;2023-11-21T18:42:33;13.30;;;7.60;;
78968;SDS011;68369;51.050;17.018;2023-11-21T18:45:19;13.30;;;7.80;;
78968;SDS011;68369;51.050;17.018;2023-11-21T18:48:05;17.20;;;9.30;;
78968;SDS011;68369;51.050;17.018;2023-11-21T18:57:23;15.40;;;9.20;;
78968;SDS011;68369;51.050;17.018;2023-11-21T19:02:59;15.20;;;9.90;;
78968;SDS011;68369;51.050;17.018;2023-11-21T19:15:33;18.10;;;9.90;;
78968;SDS011;68369;51.050;17.018;2023-11-21T19:18:20;16.10;;;8.90;;
78968;SDS011;68369;51.050;17.018;2023-11-21T19:21:11;16.40;;;9.70;;
78968;SDS011;68369;51.050;17.018;2023-11-21T19:24:02;20.60;;;10.70;;
78968;SDS011;68369;51.050;17.018;2023-11-21T19:26:48;20.10;;;11.10;;
78968;SDS011;68369;51.050;17.018;2023-11-21T19:29:35;20.40;;;11.30;;
78968;SDS011;68369;51.050;17.018;2023-11-21T19:35:31;13.60;;;8.70;;
78968;SDS011;68369;51.050;17.018;2023-11-21T19:38:22;14.90;;;8.50;;
78968;SDS011;68369;51.050;17.018;2023-11-21T19:41:12;17.30;;;9.70;;
78968;SDS011;68369;51.050;17.018;2023-11-21T19:44:08;19.00;;;11.60;;
78968;SDS011;68369;51.050;17.018;2023-11-21T19:50:09;20.20;;;10.90;;
78968;SDS011;68369;51.050;17.018;2023-11-21T19:55:49;22.80;;;12.30;;
78968;SDS011;68369;51.050;17.018;2023-11-21T19:58:36;15.90;;;10.10;;
78968;SDS011;68369;51.050;17.018;2023-11-21T20:01:23;18.50;;;10.00;;
78968;SDS011;68369;51.050;17.018;2023-11-21T20:07:01;15.90;;;9.00;;
78968;SDS011;68369;51.050;17.018;2023-11-21T20:09:48;15.00;;;9.20;;
78968;SDS011;68369;51.050;17.018;2023-11-21T20:15:27;23.40;;;12.70;;
78968;SDS011;68369;51.050;17.018;2023-11-21T20:18:14;18.80;;;9.90;;
78968;SDS011;68369;51.050;17.018;2023-11-21T20:21:00;19.00;;;11.40;;
78968;SDS011;68369;51.050;17.018;2023-11-21T20:23:48;21.10;;;11.60;;
78968;SDS011;68369;51.050;17.018;2023-11-21T20:29:13;17.00;;;9.30;;
78968;SDS011;68369;51.050;17.018;2023-11-21T20:35:16;17.70;;;10.30;;
78968;SDS011;68369;51.050;17.018;2023-11-21T20:44:42;18.50;;;10.90;;
78968;SDS011;68369;51.050;17.018;2023-11-21T20:47:30;19.90;;;11.30;;
78968;SDS011;68369;51.050;17.018;2023-11-21T21:00:13;19.60;;;10.90;;
78968;SDS011;68369;51.050;17.018;2023-11-21T21:03:02;23.00;;;10.90;;
78968;SDS011;68369;51.050;17.018;2023-11-21T21:05:50;23.50;;;11.30;;
78968;SDS011;68369;51.050;17.018;2023-11-21T21:18:35;20.40;;;12.20;;
78968;SDS011;68369;51.050;17.018;2023-11-21T21:21:23;19.90;;;11.70;;
78968;SDS011;68369;51.050;17.018;2023-11-21T21:24:10;18.60;;;9.20;;
78968;SDS011;68369;51.050;17.018;2023-11-21T21:26:56;15.20;;;7.50;;
78968;SDS011;68369;51.050;17.018;2023-11-21T21:29:42;15.80;;;9.20;;
78968;SDS011;68369;51.050;17.018;2023-11-21T21:32:28;16.30;;;9.30;;
78968;SDS011;68369;51.050;17.018;2023-11-21T21:35:15;14.80;;;8.50;;
78968;SDS011;68369;51.050;17.018;2023-11-21T21:38:02;17.60;;;10.00;;
78968;SDS011;68369;51.050;17.018;2023-11-21T21:44:04;19.60;;;11.00;;
78968;SDS011;68369;51.050;17.018;2023-11-21T21:46:50;20.20;;;11.30;;
78968;SDS011;68369;51.050;17.018;2023-11-21T21:56:31;17.50;;;9.80;;
78968;SDS011;68369;51.050;17.018;2023-11-21T21:59:18;18.90;;;10.10;;
78968;SDS011;68369;51.050;17.018;2023-11-21T22:12:14;21.70;;;12.30;;
78968;SDS011;68369;51.050;17.018;2023-11-21T22:15:01;24.20;;;12.20;;
78968;SDS011;68369;51.050;17.018;2023-11-21T22:17:49;31.40;;;14.10;;
78968;SDS011;68369;51.050;17.018;2023-11-21T22:33:38;19.50;;;10.60;;
78968;SDS011;68369;51.050;17.018;2023-11-21T22:36:24;27.50;;;14.30;;
78968;SDS011;68369;51.050;17.018;2023-11-21T22:39:12;22.90;;;13.00;;
78968;SDS011;68369;51.050;17.018;2023-11-21T22:41:59;31.50;;;15.00;;
78968;SDS011;68369;51.050;17.018;2023-11-21T22:44:46;23.30;;;13.80;;
78968;SDS011;68369;51.050;17.018;2023-11-21T22:47:33;24.40;;;12.60;;
78968;SDS011;68369;51.050;17.018;2023-11-21T22:50:22;17.90;;;10.40;;
78968;SDS011;68369;51.050;17.018;2023-11-21T22:53:09;24.10;;;13.00;;
78968;SDS011;68369;51.050;17.018;2023-11-21T22:55:55;24.70;;;13.80;;
78968;SDS011;68369;51.050;17.018;2023-11-21T22:58:41;23.80;;;12.80;;
78968;SDS011;68369;51.050;17.018;2023-11-21T23:01:28;19.00;;;10.30;;
78968;SDS011;68369;51.050;17.018;2023-11-21T23:04:18;20.00;;;11.40;;
78968;SDS011;68369;51.050;17.018;2023-11-21T23:07:04;24.60;;;13.10;;
78968;SDS011;68369;51.050;17.018;2023-11-21T23:09:51;25.80;;;13.80;;
78968;SDS011;68369;51.050;17.018;2023-11-21T23:12:37;24.70;;;13.50;;
78968;SDS011;68369;51.050;17.018;2023-11-21T23:15:24;25.70;;;14.20;;
78968;SDS011;68369;51.050;17.018;2023-11-21T23:18:12;24.20;;;14.20;;
78968;SDS011;68369;51.050;17.018;2023-11-21T23:20:58;20.20;;;11.10;;
78968;SDS011;68369;51.050;17.018;2023-11-21T23:26:47;24.80;;;12.50;;
78968;SDS011;68369;51.050;17.018;2023-11-21T23:36:11;21.10;;;11.90;;
78968;SDS011;68369;51.050;17.018;2023-11-21T23:38:58;23.10;;;13.30;;
78968;SDS011;68369;51.050;17.018;2023-11-21T23:41:48;23.00;;;12.50;;
78968;SDS011;68369;51.050;17.018;2023-11-21T23:47:46;22.10;;;12.70;;
78968;SDS011;68369;51.050;17.018;2023-11-21T23:50:33;19.50;;;10.80;;
78968;SDS011;68369;51.050;17.018;2023-11-21T23:53:19;23.80;;;13.40;;
78968;SDS011;68369;51.050;17.018;2023-11-21T23:56:06;21.00;;;12.80;;
